sensor_id;sensor_type;location;lat;lon;timestamp;pressure;altitude;pressure_sealevel;temperature;humidity
37078;BME280;22989;55.998;37.212;2022-08-19T00:01:28;99635.59;;;18.23;61.21
37078;BME280;22989;55.998;37.212;2022-08-19T00:03:59;99631.22;;;18.23;61.55
37078;BME280;22989;55.998;37.212;2022-08-19T00:06:26;99633.84;;;18.23;61.31
37078;BME280;22989;55.998;37.212;2022-08-19T00:08:52;99639.09;;;18.22;61.37
37078;BME280;22989;55.998;37.212;2022-08-19T00:11:18;99644.28;;;18.22;61.38
37078;BME280;22989;55.998;37.212;2022-08-19T00:13:44;99651.25;;;18.21;61.39
37078;BME280;22989;55.998;37.212;2022-08-19T00:16:14;99653.09;;;18.18;61.65
37078;BME280;22989;55.998;37.212;2022-08-19T00:18:41;99656.56;;;18.17;61.49
37078;BME280;22989;55.998;37.212;2022-08-19T00:21:06;99651.44;;;18.14;61.60
37078;BME280;22989;55.998;37.212;2022-08-19T00:23:33;99647.16;;;18.11;61.78
37078;BME280;22989;55.998;37.212;2022-08-19T00:26:00;99645.50;;;18.08;61.91
37078;BME280;22989;55.998;37.212;2022-08-19T00:28:26;99649.94;;;18.05;62.18
37078;BME280;22989;55.998;37.212;2022-08-19T00:30:52;99650.88;;;18.02;62.09
37078;BME280;22989;55.998;37.212;2022-08-19T00:33:19;99660.44;;;18.00;62.37
37078;BME280;22989;55.998;37.212;2022-08-19T00:35:44;99656.19;;;17.96;62.47
37078;BME280;22989;55.998;37.212;2022-08-19T00:38:10;99651.91;;;17.93;62.42
37078;BME280;22989;55.998;37.212;2022-08-19T00:40:36;99652.84;;;17.89;62.61
37078;BME280;22989;55.998;37.212;2022-08-19T00:43:10;99657.22;;;17.89;62.98
37078;BME280;22989;55.998;37.212;2022-08-19T00:45:40;99652.94;;;17.86;62.81
37078;BME280;22989;55.998;37.212;2022-08-19T00:48:10;99653.91;;;17.81;62.86
37078;BME280;22989;55.998;37.212;2022-08-19T00:50:38;99657.47;;;17.76;63.22
37078;BME280;22989;55.998;37.212;2022-08-19T00:53:06;99669.72;;;17.73;63.19
37078;BME280;22989;55.998;37.212;2022-08-19T00:55:33;99666.28;;;17.71;63.37
37078;BME280;22989;55.998;37.212;2022-08-19T00:58:07;99661.97;;;17.70;63.63
37078;BME280;22989;55.998;37.212;2022-08-19T01:00:35;99665.53;;;17.67;63.35
37078;BME280;22989;55.998;37.212;2022-08-19T01:03:11;99677.63;;;17.68;63.57
37078;BME280;22989;55.998;37.212;2022-08-19T01:05:39;99674.16;;;17.68;63.14
37078;BME280;22989;55.998;37.212;2022-08-19T01:08:06;99675.00;;;17.68;62.96
37078;BME280;22989;55.998;37.212;2022-08-19T01:10:40;99673.31;;;17.67;63.13
37078;BME280;22989;55.998;37.212;2022-08-19T01:13:07;99675.88;;;17.69;62.81
37078;BME280;22989;55.998;37.212;2022-08-19T01:15:40;99668.03;;;17.70;62.75
37078;BME280;22989;55.998;37.212;2022-08-19T01:18:10;99673.28;;;17.69;62.87
37078;BME280;22989;55.998;37.212;2022-08-19T01:20:36;99670.72;;;17.66;62.67
37078;BME280;22989;55.998;37.212;2022-08-19T01:23:02;99666.44;;;17.63;62.44
37078;BME280;22989;55.998;37.212;2022-08-19T01:25:41;99665.69;;;17.59;62.74
37078;BME280;22989;55.998;37.212;2022-08-19T01:28:15;99662.31;;;17.54;62.73
37078;BME280;22989;55.998;37.212;2022-08-19T01:30:41;99660.69;;;17.50;62.66
37078;BME280;22989;55.998;37.212;2022-08-19T01:33:09;99659.00;;;17.48;62.69
37078;BME280;22989;55.998;37.212;2022-08-19T01:35:35;99662.50;;;17.45;62.57
37078;BME280;22989;55.998;37.212;2022-08-19T01:38:08;99663.47;;;17.41;62.80
37078;BME280;22989;55.998;37.212;2022-08-19T01:40:38;99667.91;;;17.36;63.02
37078;BME280;22989;55.998;37.212;2022-08-19T01:43:05;99673.19;;;17.33;63.16
37078;BME280;22989;55.998;37.212;2022-08-19T01:45:34;99677.50;;;17.32;63.36
37078;BME280;22989;55.998;37.212;2022-08-19T01:47:59;99687.13;;;17.28;63.27
37078;BME280;22989;55.998;37.212;2022-08-19T01:50:25;99692.38;;;17.25;63.45
37078;BME280;22989;55.998;37.212;2022-08-19T01:52:51;99693.28;;;17.24;63.05
37078;BME280;22989;55.998;37.212;2022-08-19T01:55:20;99694.25;;;17.19;63.43
37078;BME280;22989;55.998;37.212;2022-08-19T01:57:52;99694.31;;;17.16;63.71
37078;BME280;22989;55.998;37.212;2022-08-19T02:00:21;99695.19;;;17.16;63.62
37078;BME280;22989;55.998;37.212;2022-08-19T02:02:48;99696.09;;;17.14;63.48
37078;BME280;22989;55.998;37.212;2022-08-19T02:05:13;99701.34;;;17.10;63.35
37078;BME280;22989;55.998;37.212;2022-08-19T02:07:40;99701.38;;;17.09;63.88
37078;BME280;22989;55.998;37.212;2022-08-19T02:10:09;99706.56;;;17.09;63.45
37078;BME280;22989;55.998;37.212;2022-08-19T02:12:35;99710.97;;;17.07;63.52
37078;BME280;22989;55.998;37.212;2022-08-19T02:15:02;99715.31;;;17.05;63.54
37078;BME280;22989;55.998;37.212;2022-08-19T02:17:29;99721.44;;;17.02;63.68
37078;BME280;22989;55.998;37.212;2022-08-19T02:19:55;99713.59;;;17.04;63.63
37078;BME280;22989;55.998;37.212;2022-08-19T02:22:22;99717.94;;;17.05;63.67
37078;BME280;22989;55.998;37.212;2022-08-19T02:24:51;99701.44;;;17.06;63.24
37078;BME280;22989;55.998;37.212;2022-08-19T02:27:18;99707.50;;;17.06;63.20
37078;BME280;22989;55.998;37.212;2022-08-19T02:29:46;99710.91;;;17.10;63.37
37078;BME280;22989;55.998;37.212;2022-08-19T02:32:12;99710.00;;;17.13;63.24
37078;BME280;22989;55.998;37.212;2022-08-19T02:34:39;99711.69;;;17.15;62.85
37078;BME280;22989;55.998;37.212;2022-08-19T02:37:05;99714.25;;;17.17;62.84
37078;BME280;22989;55.998;37.212;2022-08-19T02:39:31;99715.88;;;17.21;62.57
37078;BME280;22989;55.998;37.212;2022-08-19T02:41:56;99713.19;;;17.27;62.54
37078;BME280;22989;55.998;37.212;2022-08-19T02:44:22;99719.16;;;17.31;62.14
37078;BME280;22989;55.998;37.212;2022-08-19T02:46:48;99717.38;;;17.34;62.08
37078;BME280;22989;55.998;37.212;2022-08-19T02:49:17;99719.00;;;17.38;62.09
37078;BME280;22989;55.998;37.212;2022-08-19T02:51:44;99720.69;;;17.41;61.93
37078;BME280;22989;55.998;37.212;2022-08-19T02:54:11;99705.06;;;17.42;61.80
37078;BME280;22989;55.998;37.212;2022-08-19T02:56:40;99705.78;;;17.49;61.45
37078;BME280;22989;55.998;37.212;2022-08-19T02:59:06;99704.00;;;17.53;61.28
37078;BME280;22989;55.998;37.212;2022-08-19T03:01:33;99707.41;;;17.55;61.40
37078;BME280;22989;55.998;37.212;2022-08-19T03:04:02;99712.63;;;17.53;61.28
37078;BME280;22989;55.998;37.212;2022-08-19T03:06:30;99710.06;;;17.52;61.29
37078;BME280;22989;55.998;37.212;2022-08-19T03:08:57;99709.16;;;17.54;61.05
37078;BME280;22989;55.998;37.212;2022-08-19T03:11:26;99711.81;;;17.51;61.46
37078;BME280;22989;55.998;37.212;2022-08-19T03:13:53;99711.03;;;17.48;61.34
37078;BME280;22989;55.998;37.212;2022-08-19T03:16:24;99706.63;;;17.51;61.26
37078;BME280;22989;55.998;37.212;2022-08-19T03:18:52;99705.75;;;17.51;61.18
37078;BME280;22989;55.998;37.212;2022-08-19T03:21:23;99716.13;;;17.52;61.63
37078;BME280;22989;55.998;37.212;2022-08-19T03:23:53;99717.81;;;17.55;61.53
37078;BME280;22989;55.998;37.212;2022-08-19T03:26:19;99714.25;;;17.59;61.34
37078;BME280;22989;55.998;37.212;2022-08-19T03:28:45;99714.94;;;17.69;61.06
37078;BME280;22989;55.998;37.212;2022-08-19T03:31:17;99715.66;;;17.75;60.99
37078;BME280;22989;55.998;37.212;2022-08-19T03:33:44;99718.06;;;17.83;60.65
37078;BME280;22989;55.998;37.212;2022-08-19T03:36:13;99728.25;;;17.96;60.27
37078;BME280;22989;55.998;37.212;2022-08-19T03:38:42;99723.66;;;18.07;59.68
37078;BME280;22989;55.998;37.212;2022-08-19T03:41:13;99725.13;;;18.19;59.71
37078;BME280;22989;55.998;37.212;2022-08-19T03:43:41;99732.84;;;18.22;59.32
37078;BME280;22989;55.998;37.212;2022-08-19T03:46:11;99726.72;;;18.24;59.39
37078;BME280;22989;55.998;37.212;2022-08-19T03:48:39;99730.88;;;18.32;59.08
37078;BME280;22989;55.998;37.212;2022-08-19T03:51:07;99729.84;;;18.39;58.88
37078;BME280;22989;55.998;37.212;2022-08-19T03:53:34;99721.66;;;18.54;58.47
37078;BME280;22989;55.998;37.212;2022-08-19T03:56:01;99728.44;;;18.61;57.99
37078;BME280;22989;55.998;37.212;2022-08-19T03:58:28;99723.19;;;18.63;58.04
37078;BME280;22989;55.998;37.212;2022-08-19T04:00:55;99725.66;;;18.68;57.95
37078;BME280;22989;55.998;37.212;2022-08-19T04:03:22;99718.53;;;18.74;57.65
37078;BME280;22989;55.998;37.212;2022-08-19T04:05:48;99723.56;;;18.82;57.58
37078;BME280;22989;55.998;37.212;2022-08-19T04:08:14;99720.34;;;19.05;56.91
37078;BME280;22989;55.998;37.212;2022-08-19T04:10:46;99718.56;;;19.39;56.29
37078;BME280;22989;55.998;37.212;2022-08-19T04:13:14;99723.94;;;19.64;55.71
37078;BME280;22989;55.998;37.212;2022-08-19T04:15:42;99730.56;;;19.76;55.09
37078;BME280;22989;55.998;37.212;2022-08-19T04:18:09;99729.72;;;19.75;55.01
37078;BME280;22989;55.998;37.212;2022-08-19T04:20:43;99730.97;;;19.62;54.93
37078;BME280;22989;55.998;37.212;2022-08-19T04:23:10;99741.63;;;19.54;55.36
37078;BME280;22989;55.998;37.212;2022-08-19T04:25:42;99740.75;;;19.55;55.45
37078;BME280;22989;55.998;37.212;2022-08-19T04:28:10;99737.50;;;19.45;55.44
37078;BME280;22989;55.998;37.212;2022-08-19T04:30:42;99741.22;;;19.38;56.01
37078;BME280;22989;55.998;37.212;2022-08-19T04:33:10;99743.25;;;19.27;55.87
37078;BME280;22989;55.998;37.212;2022-08-19T04:35:41;99746.09;;;19.19;56.19
37078;BME280;22989;55.998;37.212;2022-08-19T04:38:08;99740.03;;;19.17;56.39
37078;BME280;22989;55.998;37.212;2022-08-19T04:40:40;99741.75;;;19.18;56.37
37078;BME280;22989;55.998;37.212;2022-08-19T04:43:24;99739.28;;;19.14;56.39
37078;BME280;22989;55.998;37.212;2022-08-19T04:45:50;99734.78;;;19.19;56.54
37078;BME280;22989;55.998;37.212;2022-08-19T04:48:17;99734.56;;;19.26;56.33
37078;BME280;22989;55.998;37.212;2022-08-19T04:50:47;99741.31;;;19.35;56.06
37078;BME280;22989;55.998;37.212;2022-08-19T04:53:13;99741.75;;;19.50;55.81
37078;BME280;22989;55.998;37.212;2022-08-19T04:55:41;99742.25;;;19.62;55.58
37078;BME280;22989;55.998;37.212;2022-08-19T04:58:07;99742.47;;;19.86;55.13
37078;BME280;22989;55.998;37.212;2022-08-19T05:00:33;99741.72;;;20.11;54.49
37078;BME280;22989;55.998;37.212;2022-08-19T05:02:58;99738.31;;;20.36;53.69
37078;BME280;22989;55.998;37.212;2022-08-19T05:05:24;99745.09;;;20.70;53.05
37078;BME280;22989;55.998;37.212;2022-08-19T05:07:50;99751.25;;;21.19;51.58
37078;BME280;22989;55.998;37.212;2022-08-19T05:10:15;99743.66;;;21.84;50.62
37078;BME280;22989;55.998;37.212;2022-08-19T05:12:41;99737.78;;;22.45;48.87
37078;BME280;22989;55.998;37.212;2022-08-19T05:15:07;99737.75;;;22.88;48.03
37078;BME280;22989;55.998;37.212;2022-08-19T05:17:36;99740.00;;;23.37;46.66
37078;BME280;22989;55.998;37.212;2022-08-19T05:20:04;99749.19;;;23.48;46.04
37078;BME280;22989;55.998;37.212;2022-08-19T05:22:49;99748.69;;;23.39;46.04
37078;BME280;22989;55.998;37.212;2022-08-19T05:25:18;99744.69;;;23.31;46.18
37078;BME280;22989;55.998;37.212;2022-08-19T05:27:44;99754.00;;;22.96;46.58
37078;BME280;22989;55.998;37.212;2022-08-19T05:30:11;99750.50;;;22.55;47.57
37078;BME280;22989;55.998;37.212;2022-08-19T05:32:38;99753.16;;;22.53;47.49
37078;BME280;22989;55.998;37.212;2022-08-19T05:35:04;99746.34;;;22.49;47.66
37078;BME280;22989;55.998;37.212;2022-08-19T05:37:30;99744.09;;;22.62;47.62
37078;BME280;22989;55.998;37.212;2022-08-19T05:39:56;99741.66;;;22.99;47.15
37078;BME280;22989;55.998;37.212;2022-08-19T05:42:22;99747.78;;;22.99;46.54
37078;BME280;22989;55.998;37.212;2022-08-19T05:44:49;99744.25;;;23.21;46.24
37078;BME280;22989;55.998;37.212;2022-08-19T05:47:16;99750.03;;;23.48;45.75
37078;BME280;22989;55.998;37.212;2022-08-19T05:49:44;99736.13;;;23.65;45.35
37078;BME280;22989;55.998;37.212;2022-08-19T05:52:11;99742.72;;;23.55;44.95
37078;BME280;22989;55.998;37.212;2022-08-19T05:54:40;99742.28;;;23.64;45.56
37078;BME280;22989;55.998;37.212;2022-08-19T05:57:07;99748.66;;;24.16;44.40
37078;BME280;22989;55.998;37.212;2022-08-19T05:59:33;99746.19;;;25.02;43.28
37078;BME280;22989;55.998;37.212;2022-08-19T06:02:01;99742.22;;;25.61;41.34
37078;BME280;22989;55.998;37.212;2022-08-19T06:04:27;99737.22;;;26.05;40.99
37078;BME280;22989;55.998;37.212;2022-08-19T06:06:54;99749.88;;;26.30;39.89
37078;BME280;22989;55.998;37.212;2022-08-19T06:09:21;99745.69;;;26.42;39.89
37078;BME280;22989;55.998;37.212;2022-08-19T06:11:52;99739.06;;;26.95;39.56
37078;BME280;22989;55.998;37.212;2022-08-19T06:14:23;99750.41;;;27.26;38.17
37078;BME280;22989;55.998;37.212;2022-08-19T06:16:49;99760.44;;;26.76;38.57
37078;BME280;22989;55.998;37.212;2022-08-19T06:19:20;99751.41;;;26.18;39.42
37078;BME280;22989;55.998;37.212;2022-08-19T06:21:47;99763.53;;;25.73;40.31
37078;BME280;22989;55.998;37.212;2022-08-19T06:24:17;99757.38;;;25.40;41.31
37078;BME280;22989;55.998;37.212;2022-08-19T06:26:47;99760.81;;;25.25;41.76
37078;BME280;22989;55.998;37.212;2022-08-19T06:29:14;99761.06;;;25.03;42.32
37078;BME280;22989;55.998;37.212;2022-08-19T06:31:43;99774.47;;;24.81;42.65
37078;BME280;22989;55.998;37.212;2022-08-19T06:34:09;99769.47;;;24.57;42.96
37078;BME280;22989;55.998;37.212;2022-08-19T06:36:38;99760.19;;;24.13;43.89
37078;BME280;22989;55.998;37.212;2022-08-19T06:39:07;99759.19;;;24.35;43.90
37078;BME280;22989;55.998;37.212;2022-08-19T06:41:36;99763.63;;;24.69;43.42
37078;BME280;22989;55.998;37.212;2022-08-19T06:44:03;99763.41;;;24.74;42.96
37078;BME280;22989;55.998;37.212;2022-08-19T06:46:29;99757.97;;;24.23;43.96
37078;BME280;22989;55.998;37.212;2022-08-19T06:48:56;99767.50;;;24.25;43.86
37078;BME280;22989;55.998;37.212;2022-08-19T06:51:23;99754.88;;;23.95;44.49
37078;BME280;22989;55.998;37.212;2022-08-19T06:53:51;99761.91;;;23.95;44.87
37078;BME280;22989;55.998;37.212;2022-08-19T06:56:23;99765.03;;;24.03;44.62
37078;BME280;22989;55.998;37.212;2022-08-19T06:58:50;99764.44;;;24.16;44.79
37078;BME280;22989;55.998;37.212;2022-08-19T07:01:18;99767.06;;;24.16;44.56
37078;BME280;22989;55.998;37.212;2022-08-19T07:03:45;99771.00;;;23.88;45.27
37078;BME280;22989;55.998;37.212;2022-08-19T07:06:16;99773.41;;;23.73;45.51
37078;BME280;22989;55.998;37.212;2022-08-19T07:08:44;99769.00;;;23.74;46.04
37078;BME280;22989;55.998;37.212;2022-08-19T07:11:14;99762.31;;;23.67;45.69
37078;BME280;22989;55.998;37.212;2022-08-19T07:13:40;99755.94;;;23.91;45.50
37078;BME280;22989;55.998;37.212;2022-08-19T07:16:18;99755.03;;;24.29;44.92
37078;BME280;22989;55.998;37.212;2022-08-19T07:18:46;99757.16;;;24.40;44.56
37078;BME280;22989;55.998;37.212;2022-08-19T07:21:21;99756.97;;;24.62;44.26
37078;BME280;22989;55.998;37.212;2022-08-19T07:23:48;99761.91;;;24.68;44.08
37078;BME280;22989;55.998;37.212;2022-08-19T07:26:20;99767.03;;;24.71;43.52
37078;BME280;22989;55.998;37.212;2022-08-19T07:28:47;99760.50;;;24.61;43.54
37078;BME280;22989;55.998;37.212;2022-08-19T07:31:16;99776.66;;;24.53;43.37
37078;BME280;22989;55.998;37.212;2022-08-19T07:33:44;99768.06;;;24.32;44.10
37078;BME280;22989;55.998;37.212;2022-08-19T07:36:13;99777.72;;;24.49;43.89
37078;BME280;22989;55.998;37.212;2022-08-19T07:38:41;99768.00;;;24.51;43.81
37078;BME280;22989;55.998;37.212;2022-08-19T07:41:12;99772.03;;;24.58;44.07
37078;BME280;22989;55.998;37.212;2022-08-19T07:43:38;99765.59;;;24.46;44.03
37078;BME280;22989;55.998;37.212;2022-08-19T07:46:05;99770.38;;;24.38;43.89
37078;BME280;22989;55.998;37.212;2022-08-19T07:48:31;99768.06;;;24.32;44.25
37078;BME280;22989;55.998;37.212;2022-08-19T07:51:01;99765.94;;;24.21;44.61
37078;BME280;22989;55.998;37.212;2022-08-19T07:53:29;99771.78;;;24.09;44.83
37078;BME280;22989;55.998;37.212;2022-08-19T07:55:55;99773.31;;;24.13;44.72
37078;BME280;22989;55.998;37.212;2022-08-19T07:58:25;99769.56;;;24.00;44.88
37078;BME280;22989;55.998;37.212;2022-08-19T08:00:51;99765.75;;;24.07;44.69
37078;BME280;22989;55.998;37.212;2022-08-19T08:03:19;99769.63;;;24.17;45.03
37078;BME280;22989;55.998;37.212;2022-08-19T08:05:46;99770.50;;;24.18;44.93
37078;BME280;22989;55.998;37.212;2022-08-19T08:08:30;99780.22;;;24.16;44.94
37078;BME280;22989;55.998;37.212;2022-08-19T08:11:03;99786.50;;;24.30;45.03
37078;BME280;22989;55.998;37.212;2022-08-19T08:13:29;99777.44;;;24.38;45.03
37078;BME280;22989;55.998;37.212;2022-08-19T08:15:56;99781.59;;;24.42;44.96
37078;BME280;22989;55.998;37.212;2022-08-19T08:18:23;99774.09;;;24.34;45.11
37078;BME280;22989;55.998;37.212;2022-08-19T08:20:50;99787.53;;;24.28;45.10
37078;BME280;22989;55.998;37.212;2022-08-19T08:23:17;99775.63;;;24.38;45.34
37078;BME280;22989;55.998;37.212;2022-08-19T08:25:52;99782.44;;;24.42;45.24
37078;BME280;22989;55.998;37.212;2022-08-19T08:28:19;99782.53;;;24.41;45.14
37078;BME280;22989;55.998;37.212;2022-08-19T08:30:49;99782.91;;;24.51;45.41
37078;BME280;22989;55.998;37.212;2022-08-19T08:33:20;99783.06;;;24.48;45.39
37078;BME280;22989;55.998;37.212;2022-08-19T08:35:48;99785.31;;;24.38;45.16
37078;BME280;22989;55.998;37.212;2022-08-19T08:38:15;99786.06;;;24.40;45.34
37078;BME280;22989;55.998;37.212;2022-08-19T08:40:48;99788.59;;;24.60;45.69
37078;BME280;22989;55.998;37.212;2022-08-19T08:43:35;99784.53;;;24.90;44.90
37078;BME280;22989;55.998;37.212;2022-08-19T08:46:10;99789.94;;;25.04;42.80
37078;BME280;22989;55.998;37.212;2022-08-19T08:51:34;99801.34;;;25.56;41.50
37078;BME280;22989;55.998;37.212;2022-08-19T08:54:02;99778.41;;;25.58;39.51
37078;BME280;22989;55.998;37.212;2022-08-19T08:56:31;99779.94;;;25.62;38.73
37078;BME280;22989;55.998;37.212;2022-08-19T08:59:14;99765.59;;;25.84;38.44
37078;BME280;22989;55.998;37.212;2022-08-19T09:01:43;99775.38;;;25.82;37.71
37078;BME280;22989;55.998;37.212;2022-08-19T09:04:12;99775.34;;;25.66;38.12
37078;BME280;22989;55.998;37.212;2022-08-19T09:09:34;99784.09;;;25.66;37.58
37078;BME280;22989;55.998;37.212;2022-08-19T09:12:57;99784.81;;;25.86;37.60
37078;BME280;22989;55.998;37.212;2022-08-19T09:15:10;99795.63;;;25.81;37.53
37078;BME280;22989;55.998;37.212;2022-08-19T09:17:37;99780.03;;;25.76;36.87
37078;BME280;22989;55.998;37.212;2022-08-19T09:20:18;99786.78;;;25.98;36.78
37078;BME280;22989;55.998;37.212;2022-08-19T09:22:44;99781.69;;;25.95;36.75
37078;BME280;22989;55.998;37.212;2022-08-19T09:25:13;99792.72;;;25.86;37.04
37078;BME280;22989;55.998;37.212;2022-08-19T09:27:41;99790.91;;;25.70;36.77
37078;BME280;22989;55.998;37.212;2022-08-19T09:30:11;99787.28;;;25.89;36.68
37078;BME280;22989;55.998;37.212;2022-08-19T09:32:37;99784.31;;;25.95;35.59
37078;BME280;22989;55.998;37.212;2022-08-19T09:35:04;99784.72;;;25.71;35.77
37078;BME280;22989;55.998;37.212;2022-08-19T09:37:31;99794.56;;;25.52;34.47
37078;BME280;22989;55.998;37.212;2022-08-19T09:39:57;99793.78;;;25.32;34.70
37078;BME280;22989;55.998;37.212;2022-08-19T09:42:23;99791.97;;;25.34;35.34
37078;BME280;22989;55.998;37.212;2022-08-19T09:44:48;99797.25;;;25.33;35.89
37078;BME280;22989;55.998;37.212;2022-08-19T09:47:14;99793.03;;;25.30;36.89
37078;BME280;22989;55.998;37.212;2022-08-19T09:49:41;99813.88;;;25.17;35.41
37078;BME280;22989;55.998;37.212;2022-08-19T09:52:11;99793.44;;;25.05;35.24
37078;BME280;22989;55.998;37.212;2022-08-19T09:54:38;99802.34;;;24.85;35.57
37078;BME280;22989;55.998;37.212;2022-08-19T09:57:04;99804.00;;;24.68;35.72
37078;BME280;22989;55.998;37.212;2022-08-19T09:59:30;99808.59;;;24.65;37.00
37078;BME280;22989;55.998;37.212;2022-08-19T10:01:59;99829.72;;;24.63;36.72
37078;BME280;22989;55.998;37.212;2022-08-19T10:04:25;99802.41;;;24.66;37.02
37078;BME280;22989;55.998;37.212;2022-08-19T10:07:14;99813.53;;;24.71;37.61
37078;BME280;22989;55.998;37.212;2022-08-19T10:09:40;99805.59;;;24.72;37.77
37078;BME280;22989;55.998;37.212;2022-08-19T10:12:07;99802.56;;;24.80;37.80
37078;BME280;22989;55.998;37.212;2022-08-19T10:14:34;99807.59;;;24.85;37.80
37078;BME280;22989;55.998;37.212;2022-08-19T10:17:01;99807.75;;;24.99;37.88
37078;BME280;22989;55.998;37.212;2022-08-19T10:19:28;99800.31;;;25.07;37.62
37078;BME280;22989;55.998;37.212;2022-08-19T10:21:58;99811.00;;;25.04;38.09
37078;BME280;22989;55.998;37.212;2022-08-19T10:24:24;99804.72;;;24.89;37.42
37078;BME280;22989;55.998;37.212;2022-08-19T10:26:51;99802.97;;;25.07;37.20
37078;BME280;22989;55.998;37.212;2022-08-19T10:29:17;99805.13;;;25.17;36.95
37078;BME280;22989;55.998;37.212;2022-08-19T10:31:43;99801.22;;;25.24;36.84
37078;BME280;22989;55.998;37.212;2022-08-19T10:34:09;99795.78;;;25.27;37.24
37078;BME280;22989;55.998;37.212;2022-08-19T10:36:36;99782.41;;;25.49;37.19
37078;BME280;22989;55.998;37.212;2022-08-19T10:39:07;99784.09;;;25.66;36.86
37078;BME280;22989;55.998;37.212;2022-08-19T10:41:36;99787.25;;;25.73;36.62
37078;BME280;22989;55.998;37.212;2022-08-19T10:44:05;99787.72;;;25.81;37.13
37078;BME280;22989;55.998;37.212;2022-08-19T10:46:35;99799.41;;;25.75;37.35
37078;BME280;22989;55.998;37.212;2022-08-19T10:49:02;99795.66;;;25.63;37.64
37078;BME280;22989;55.998;37.212;2022-08-19T10:51:29;99804.53;;;25.62;37.76
37078;BME280;22989;55.998;37.212;2022-08-19T10:54:14;99808.13;;;25.44;37.94
37078;BME280;22989;55.998;37.212;2022-08-19T10:56:40;99811.78;;;25.41;35.64
37078;BME280;22989;55.998;37.212;2022-08-19T10:59:28;99808.66;;;25.51;33.99
37078;BME280;22989;55.998;37.212;2022-08-19T11:01:59;99792.84;;;25.51;33.87
37078;BME280;22989;55.998;37.212;2022-08-19T11:04:25;99805.00;;;25.53;33.99
37078;BME280;22989;55.998;37.212;2022-08-19T11:06:51;99805.94;;;25.52;34.06
37078;BME280;22989;55.998;37.212;2022-08-19T11:09:22;99806.09;;;25.49;33.63
37078;BME280;22989;55.998;37.212;2022-08-19T11:11:53;99784.28;;;25.63;34.02
37078;BME280;22989;55.998;37.212;2022-08-19T11:14:20;99783.97;;;25.85;33.34
37078;BME280;22989;55.998;37.212;2022-08-19T11:16:50;99802.34;;;25.87;30.35
37078;BME280;22989;55.998;37.212;2022-08-19T11:19:17;99801.72;;;25.82;29.57
37078;BME280;22989;55.998;37.212;2022-08-19T11:21:47;99803.16;;;25.71;30.20
37078;BME280;22989;55.998;37.212;2022-08-19T11:24:19;99798.41;;;25.78;30.08
37078;BME280;22989;55.998;37.212;2022-08-19T11:26:46;99793.81;;;25.82;29.46
37078;BME280;22989;55.998;37.212;2022-08-19T11:29:15;99785.75;;;25.85;28.96
37078;BME280;22989;55.998;37.212;2022-08-19T11:31:44;99811.13;;;26.03;28.93
37078;BME280;22989;55.998;37.212;2022-08-19T11:34:13;99817.56;;;25.82;28.02
37078;BME280;22989;55.998;37.212;2022-08-19T11:36:41;99790.09;;;25.86;28.65
37078;BME280;22989;55.998;37.212;2022-08-19T11:39:10;99794.44;;;25.87;28.04
37078;BME280;22989;55.998;37.212;2022-08-19T11:41:36;99798.69;;;25.89;28.79
37078;BME280;22989;55.998;37.212;2022-08-19T11:44:02;99783.13;;;26.01;29.08
37078;BME280;22989;55.998;37.212;2022-08-19T11:46:30;99791.75;;;26.04;29.59
37078;BME280;22989;55.998;37.212;2022-08-19T11:48:57;99804.53;;;25.94;28.68
37078;BME280;22989;55.998;37.212;2022-08-19T11:51:24;99802.50;;;25.68;28.27
37078;BME280;22989;55.998;37.212;2022-08-19T11:53:51;99811.81;;;25.57;28.74
37078;BME280;22989;55.998;37.212;2022-08-19T11:56:18;99837.94;;;25.44;28.52
37078;BME280;22989;55.998;37.212;2022-08-19T11:58:44;99807.50;;;25.39;27.89
37078;BME280;22989;55.998;37.212;2022-08-19T12:01:12;99797.81;;;25.39;28.34
37078;BME280;22989;55.998;37.212;2022-08-19T12:03:39;99804.97;;;25.37;27.38
37078;BME280;22989;55.998;37.212;2022-08-19T12:06:06;99800.44;;;25.39;28.32
37078;BME280;22989;55.998;37.212;2022-08-19T12:08:32;99831.75;;;25.45;27.40
37078;BME280;22989;55.998;37.212;2022-08-19T12:10:58;99817.75;;;25.45;27.47
37078;BME280;22989;55.998;37.212;2022-08-19T12:13:27;99813.47;;;25.42;27.48
37078;BME280;22989;55.998;37.212;2022-08-19T12:15:53;99800.41;;;25.41;27.53
37078;BME280;22989;55.998;37.212;2022-08-19T12:18:19;99795.66;;;25.48;27.55
37078;BME280;22989;55.998;37.212;2022-08-19T12:20:45;99779.41;;;25.55;27.32
37078;BME280;22989;55.998;37.212;2022-08-19T12:23:13;99775.44;;;25.64;27.03
37078;BME280;22989;55.998;37.212;2022-08-19T12:25:45;99780.75;;;25.80;26.85
37078;BME280;22989;55.998;37.212;2022-08-19T12:28:20;99798.50;;;25.92;26.80
37078;BME280;22989;55.998;37.212;2022-08-19T12:31:11;99771.47;;;25.89;26.71
37078;BME280;22989;55.998;37.212;2022-08-19T12:33:38;99790.88;;;25.88;26.56
37078;BME280;22989;55.998;37.212;2022-08-19T12:36:06;99793.25;;;25.92;25.82
37078;BME280;22989;55.998;37.212;2022-08-19T12:38:33;99787.03;;;25.93;26.01
37078;BME280;22989;55.998;37.212;2022-08-19T12:41:03;99779.47;;;25.87;25.79
37078;BME280;22989;55.998;37.212;2022-08-19T12:43:32;99786.44;;;25.88;25.58
37078;BME280;22989;55.998;37.212;2022-08-19T12:46:00;99775.94;;;26.04;25.85
37078;BME280;22989;55.998;37.212;2022-08-19T12:48:26;99774.63;;;26.11;25.93
37078;BME280;22989;55.998;37.212;2022-08-19T12:50:52;99792.91;;;25.99;26.53
37078;BME280;22989;55.998;37.212;2022-08-19T12:53:18;99775.03;;;25.72;27.40
37078;BME280;22989;55.998;37.212;2022-08-19T12:55:43;99770.09;;;25.82;27.55
37078;BME280;22989;55.998;37.212;2022-08-19T12:58:10;99780.75;;;25.80;27.49
37078;BME280;22989;55.998;37.212;2022-08-19T13:00:38;99773.59;;;25.82;27.69
37078;BME280;22989;55.998;37.212;2022-08-19T13:03:04;99768.81;;;25.89;28.00